Airfield :
LOGIN :

Register | Disclaimer

   EN    FR    IT 

 










Legend :    VFR   Marginal VFR   IFR   Intensive IFR   Very Intensive IFR
Visi :
Ceiling :
>= 8 km
>= 3000ft
5 to 8 km
1000 to 3000 ft
1500m to 5 km
500 to 1000 ft
800 to 1500m
200 to 500 ft
< 800m
< 200 ft
Symbols :   Thunderstorms  Fog  Heavy snow  Heavy precipitations  Wind > 20 kt
SIGMETs :     Misc.  Thunderstorms  Icing  Turbulence  Mountain Waves  Volcanic Ashes






- Airport Elevation : 357 ft
- IATA code : TUF


LFOT - Tours

CURRENT METAR :
  • 181000Z AUTO 27004KT 200V350 CAVOK 23/15 Q1015 NOSIG

EXPIRED METARs :
  • 180930Z AUTO 26004KT 220V310 CAVOK 23/15 Q1015 NOSIG
  • 180900Z AUTO 25004KT 200V310 CAVOK 22/15 Q1015 TEMPO 4000 BR BKN008
  • 180830Z AUTO 27004KT 230V320 CAVOK 20/15 Q1015 TEMPO 4000 BR BKN008
  • 180800Z AUTO VRB03KT CAVOK 20/15 Q1015 TEMPO 4000 BR BKN008

TAF TAF LFOT
Valid from the 18 at 06:00 until the 19 at 06:00 UTC


180500Z 1806/1906 VRB04KT CAVOK
PROB40
TEMPO 1806/1808 2500 BR BKN004
PROB30
TEMPO 1806/1807 0600 FG VV///
PROB30
TEMPO 1808/1810 4000 BR BKN008
BECMG 1810/1812 31010KT
PROB40
TEMPO 1902/1906 BKN006
PROB30
TEMPO 1902/1906 4000 BR BKN004



MET'MAP, your aeronautical weather chart ! - Copyright ORBIFLY December 2007 - Disclaimer

ORBIFLY MET'MAP TEAM :

Programming & Development : Alexandra Zaïnal
Original concept : Baudouin d'Aumeries
Technical & hardware support : Manuel Goepfert
Assistance : Marc-Olivier Méhu




SOURCES & CREDITS :

   NOAA